Time;durP1;ratioP1;P1;durP2;ratioP2;P2;SDS_P1;SDS_P2;PMS_P1;PMS_P2;Temp;Humidity;BMP_temperature;BMP_pressure;BME280_temperature;BME280_humidity;BME280_pressure;Samples;Min_cycle;Max_cycle;Signal;HPM_P1;HPM_P2
2022/03/22 00:01:56;;;;;;;;;;;;;;;7.02;57.69043;103189.2;;;;-73
2022/03/22 00:06:57;;;;;;;;;;;;;;;6.98;57.82813;103189.3;;;;-74
2022/03/22 00:11:57;;;;;;;;;;;;;;;6.91;57.79688;103189.4;;;;-75
2022/03/22 00:15:16;;;;;;;21.5;9.4;;;;;;;;;;;;;-73
2022/03/22 00:16:57;;;;;;;;;;;;;;;6.87;57.95703;103187.1;;;;-74
2022/03/22 00:21:57;;;;;;;;;;;;;;;6.82;57.69629;103184.4;;;;-74
2022/03/22 00:26:57;;;;;;;;;;;;;;;6.75;57.77539;103184.8;;;;-75
2022/03/22 00:31:57;;;;;;;;;;;;;;;6.68;58.04102;103184.6;;;;-74
2022/03/22 00:36:59;;;;;;;;;;;;;;;6.6;57.93262;103183.7;;;;-73
2022/03/22 00:41:59;;;;;;;;;;;;;;;6.53;57.97754;103184.8;;;;-75
2022/03/22 00:45:17;;;;;;;21.5;8.9;;;;;;;;;;;;;-74
2022/03/22 00:46:57;;;;;;;;;;;;;;;6.48;58.10449;103190.4;;;;-75
2022/03/22 00:51:59;;;;;;;;;;;;;;;6.42;58.18359;103191;;;;-74
2022/03/22 00:56:57;;;;;;;;;;;;;;;6.38;58.35449;103191.2;;;;-74
2022/03/22 01:01:57;;;;;;;;;;;;;;;6.34;58.38379;103190;;;;-74
2022/03/22 01:06:57;;;;;;;;;;;;;;;6.3;58.17871;103190.8;;;;-74
2022/03/22 01:11:57;;;;;;;;;;;;;;;6.25;58.43652;103187.4;;;;-74
2022/03/22 01:15:18;;;;;;;19.7;8.4;;;;;;;;;;;;;-74
2022/03/22 01:16:57;;;;;;;;;;;;;;;6.19;58.42871;103185.1;;;;-74
2022/03/22 01:21:56;;;;;;;;;;;;;;;6.14;58.59766;103184.3;;;;-73
2022/03/22 01:26:57;;;;;;;;;;;;;;;6.09;58.4043;103188.1;;;;-74
2022/03/22 01:31:59;;;;;;;;;;;;;;;6.05;58.30957;103180.7;;;;-75
2022/03/22 01:36:57;;;;;;;;;;;;;;;6;58.39063;103176;;;;-74
2022/03/22 01:41:57;;;;;;;;;;;;;;;5.99;58.54492;103175.1;;;;-74
2022/03/22 01:45:17;;;;;;;18.2;7.9;;;;;;;;;;;;;-74
2022/03/22 01:46:58;;;;;;;;;;;;;;;6;58.5127;103169.9;;;;-74
2022/03/22 01:51:58;;;;;;;;;;;;;;;6;58.59961;103174.1;;;;-73
2022/03/22 01:56:57;;;;;;;;;;;;;;;6;58.69922;103169.5;;;;-75
2022/03/22 02:06:57;;;;;;;;;;;;;;;5.93;58.70117;103168.7;;;;-76
2022/03/22 02:11:57;;;;;;;;;;;;;;;5.89;58.58594;103169.8;;;;-73
2022/03/22 02:15:17;;;;;;;20.9;8.8;;;;;;;;;;;;;-73
2022/03/22 02:16:56;;;;;;;;;;;;;;;5.84;58.81152;103165.3;;;;-74
2022/03/22 02:22:01;;;;;;;;;;;;;;;5.78;58.75781;103171.9;;;;-73
2022/03/22 02:26:57;;;;;;;;;;;;;;;5.73;58.79395;103166.4;;;;-73
2022/03/22 02:31:57;;;;;;;;;;;;;;;5.65;58.6084;103168;;;;-74
2022/03/22 02:36:57;;;;;;;;;;;;;;;5.58;58.77441;103165.4;;;;-73
2022/03/22 02:41:57;;;;;;;;;;;;;;;5.51;58.65527;103166.8;;;;-74
2022/03/22 02:45:17;;;;;;;18.3;7.9;;;;;;;;;;;;;-74
2022/03/22 02:46:57;;;;;;;;;;;;;;;5.45;58.58105;103167.6;;;;-73
2022/03/22 02:51:57;;;;;;;;;;;;;;;5.39;58.63965;103160.4;;;;-75
2022/03/22 02:56:58;;;;;;;;;;;;;;;5.35;59.01855;103165.5;;;;-73
2022/03/22 03:02:00;;;;;;;;;;;;;;;5.29;58.9873;103165.6;;;;-75
2022/03/22 03:06:58;;;;;;;;;;;;;;;5.19;58.72266;103163.3;;;;-74
2022/03/22 03:11:57;;;;;;;;;;;;;;;5.15;59.03516;103165.2;;;;-74
2022/03/22 03:15:18;;;;;;;20.1;8.4;;;;;;;;;;;;;-74
2022/03/22 03:16:57;;;;;;;;;;;;;;;5.09;59.23633;103167.1;;;;-73
2022/03/22 03:21:57;;;;;;;;;;;;;;;5.04;59.08691;103158.9;;;;-74
2022/03/22 03:27:01;;;;;;;;;;;;;;;4.99;59.25586;103162.5;;;;-73
2022/03/22 03:31:57;;;;;;;;;;;;;;;4.93;59.19141;103159.2;;;;-76
2022/03/22 03:36:59;;;;;;;;;;;;;;;4.89;58.73633;103155.6;;;;-74
2022/03/22 03:42:02;;;;;;;;;;;;;;;4.84;58.83984;103158;;;;-74
2022/03/22 03:47:10;;;;;;;;;;;;;;;4.8;59.03125;103161.2;;;;-74
2022/03/22 03:51:56;;;;;;;;;;;;;;;4.79;58.91992;103159;;;;-77
2022/03/22 03:56:56;;;;;;;;;;;;;;;4.77;59.15918;103169.9;;;;-74
2022/03/22 04:01:57;;;;;;;;;;;;;;;4.77;59.28027;103172.2;;;;-75
2022/03/22 04:06:57;;;;;;;;;;;;;;;4.76;59.11328;103176.1;;;;-74
2022/03/22 04:11:56;;;;;;;;;;;;;;;4.72;59.27246;103178;;;;-73
2022/03/22 04:15:18;;;;;;;19;8.1;;;;;;;;;;;;;-74
2022/03/22 04:16:57;;;;;;;;;;;;;;;4.72;59.16309;103172.6;;;;-74
2022/03/22 04:21:58;;;;;;;;;;;;;;;4.73;59.27441;103177.4;;;;-73
2022/03/22 04:32:41;;;;;;;;;;;;;;;4.75;59.25488;103177.5;;;;-74
2022/03/22 04:37:00;;;;;;;;;;;;;;;4.73;59.25195;103181.3;;;;-79
2022/03/22 04:41:58;;;;;;;;;;;;;;;4.75;59.44238;103176;;;;-79
2022/03/22 04:45:19;;;;;;;19.6;8.1;;;;;;;;;;;;;-79
2022/03/22 04:46:57;;;;;;;;;;;;;;;4.79;59.43652;103177.1;;;;-77
2022/03/22 04:56:57;;;;;;;;;;;;;;;4.83;59.5293;103181.8;;;;-79
2022/03/22 05:01:57;;;;;;;;;;;;;;;4.83;59.62891;103180.7;;;;-81
2022/03/22 05:06:57;;;;;;;;;;;;;;;4.85;59.71973;103183.1;;;;-79
2022/03/22 05:11:57;;;;;;;;;;;;;;;4.86;59.73145;103186.6;;;;-79
2022/03/22 05:15:19;;;;;;;24.2;9.7;;;;;;;;;;;;;-78
2022/03/22 05:17:00;;;;;;;;;;;;;;;4.87;59.78711;103188.2;;;;-79
2022/03/22 05:21:57;;;;;;;;;;;;;;;4.89;59.85742;103193.3;;;;-79
2022/03/22 05:26:56;;;;;;;;;;;;;;;4.9;60.05566;103196.4;;;;-79
2022/03/22 05:31:57;;;;;;;;;;;;;;;4.92;59.98145;103199.9;;;;-79
2022/03/22 05:36:57;;;;;;;;;;;;;;;4.93;60.12598;103205.6;;;;-78
2022/03/22 05:41:56;;;;;;;;;;;;;;;4.94;59.99512;103200.8;;;;-77
2022/03/22 05:45:18;;;;;;;27.1;11.6;;;;;;;;;;;;;-78
2022/03/22 05:46:58;;;;;;;;;;;;;;;4.97;60.14355;103203;;;;-78
2022/03/22 05:51:58;;;;;;;;;;;;;;;4.99;60.2998;103209.6;;;;-79
2022/03/22 05:56:57;;;;;;;;;;;;;;;5;60.36621;103209.7;;;;-78
2022/03/22 06:01:56;;;;;;;;;;;;;;;5.02;60.27051;103216.3;;;;-79
2022/03/22 06:06:57;;;;;;;;;;;;;;;5.02;60.52344;103219.1;;;;-78
2022/03/22 06:11:56;;;;;;;;;;;;;;;5.04;60.41699;103222.8;;;;-78
2022/03/22 06:15:23;;;;;;;29;12.4;;;;;;;;;;;;;-80
2022/03/22 06:16:57;;;;;;;;;;;;;;;5.07;60.24512;103227;;;;-79
2022/03/22 06:21:59;;;;;;;;;;;;;;;5.09;60.19238;103226.5;;;;-80
2022/03/22 06:26:57;;;;;;;;;;;;;;;5.1;60.38086;103234.2;;;;-78
2022/03/22 06:31:56;;;;;;;;;;;;;;;5.15;60.10156;103238.9;;;;-79
2022/03/22 06:36:57;;;;;;;;;;;;;;;5.19;60.08594;103243.2;;;;-77
2022/03/22 06:41:59;;;;;;;;;;;;;;;5.37;59.34082;103244.4;;;;-78
2022/03/22 06:45:20;;;;;;;31.4;13.4;;;;;;;;;;;;;-79
2022/03/22 06:46:57;;;;;;;;;;;;;;;5.53;59.21973;103250.8;;;;-78
2022/03/22 06:51:58;;;;;;;;;;;;;;;5.7;59.24316;103255.4;;;;-79
2022/03/22 06:56:57;;;;;;;;;;;;;;;5.84;58.97559;103250.3;;;;-79
2022/03/22 07:01:57;;;;;;;;;;;;;;;5.98;59.00684;103248.5;;;;-78
2022/03/22 07:06:57;;;;;;;;;;;;;;;6.12;58.92578;103256;;;;-80
2022/03/22 07:11:58;;;;;;;;;;;;;;;6.28;58.90332;103256.2;;;;-79
2022/03/22 07:15:23;;;;;;;34.2;15.1;;;;;;;;;;;;;-80
2022/03/22 07:16:57;;;;;;;;;;;;;;;6.46;59.01563;103251.6;;;;-80
2022/03/22 07:21:58;;;;;;;;;;;;;;;6.65;58.72168;103259.1;;;;-79
2022/03/22 07:27:01;;;;;;;;;;;;;;;6.88;59.25098;103260.4;;;;-79
2022/03/22 07:31:57;;;;;;;;;;;;;;;7.15;58.85645;103264.3;;;;-77
2022/03/22 07:37:00;;;;;;;;;;;;;;;7.42;58.75;103268.9;;;;-79
2022/03/22 07:42:01;;;;;;;;;;;;;;;7.71;58.90039;103265.6;;;;-80
2022/03/22 07:45:21;;;;;;;33.1;15.2;;;;;;;;;;;;;-80
2022/03/22 07:46:56;;;;;;;;;;;;;;;8.03;58.35742;103272.3;;;;-80
2022/03/22 07:56:56;;;;;;;;;;;;;;;8.71;58.18262;103271.4;;;;-81
2022/03/22 08:01:57;;;;;;;;;;;;;;;9.08;58.61914;103269.4;;;;-77
2022/03/22 08:06:57;;;;;;;;;;;;;;;9.44;57.49023;103273.3;;;;-81
2022/03/22 08:11:56;;;;;;;;;;;;;;;9.83;57.47461;103270.1;;;;-80
2022/03/22 08:15:20;;;;;;;34.7;16.3;;;;;;;;;;;;;-80
2022/03/22 08:16:56;;;;;;;;;;;;;;;10.26;56.73047;103267.3;;;;-80
2022/03/22 08:21:56;;;;;;;;;;;;;;;10.72;56.47949;103267;;;;-80
2022/03/22 08:26:56;;;;;;;;;;;;;;;11.24;56.42285;103268.3;;;;-80
2022/03/22 08:31:57;;;;;;;;;;;;;;;11.74;56.05273;103267.4;;;;-79
2022/03/22 08:37:03;;;;;;;;;;;;;;;12.28;55.46094;103272;;;;-81
2022/03/22 08:41:57;;;;;;;;;;;;;;;12.75;54.38867;103272.4;;;;-81
2022/03/22 08:45:23;;;;;;;34.2;17.1;;;;;;;;;;;;;-79
2022/03/22 08:47:01;;;;;;;;;;;;;;;13.28;53.97168;103274.9;;;;-80
2022/03/22 08:51:57;;;;;;;;;;;;;;;13.72;53.49805;103275.6;;;;-80
2022/03/22 08:56:56;;;;;;;;;;;;;;;14.21;52.44434;103276.9;;;;-80
2022/03/22 09:01:57;;;;;;;;;;;;;;;14.49;52.31934;103275.3;;;;-81
2022/03/22 09:06:57;;;;;;;;;;;;;;;14.77;51.41797;103281.5;;;;-81
2022/03/22 09:11:57;;;;;;;;;;;;;;;15.08;51.43164;103279.7;;;;-80
2022/03/22 09:15:24;;;;;;;33.5;17.5;;;;;;;;;;;;;-81
2022/03/22 09:16:56;;;;;;;;;;;;;;;15.43;51.06641;103278.8;;;;-81
2022/03/22 09:21:56;;;;;;;;;;;;;;;15.71;50.41016;103280;;;;-80
2022/03/22 09:27:06;;;;;;;;;;;;;;;15.97;50.37109;103275.5;;;;-81
2022/03/22 09:31:56;;;;;;;;;;;;;;;16.31;50.55762;103276.6;;;;-81
2022/03/22 09:36:56;;;;;;;;;;;;;;;16.66;49.48828;103276.6;;;;-81
2022/03/22 09:42:10;;;;;;;;;;;;;;;16.85;48.9873;103271.9;;;;-81
2022/03/22 09:45:29;;;;;;;31.4;17.4;;;;;;;;;;;;;-81
2022/03/22 09:46:56;;;;;;;;;;;;;;;17.04;48.66992;103270.1;;;;-80
2022/03/22 09:51:56;;;;;;;;;;;;;;;17.25;48.25098;103267.2;;;;-80
2022/03/22 09:56:57;;;;;;;;;;;;;;;17.52;48.75586;103267.9;;;;-82
2022/03/22 10:01:58;;;;;;;;;;;;;;;17.78;48.02441;103260.5;;;;-81
2022/03/22 10:07:03;;;;;;;;;;;;;;;17.99;48.00098;103256.3;;;;-82
2022/03/22 10:11:57;;;;;;;;;;;;;;;18.25;47.64355;103251.7;;;;-80
2022/03/22 10:15:32;;;;;;;28.7;16.2;;;;;;;;;;;;;-79
2022/03/22 10:16:56;;;;;;;;;;;;;;;18.47;47.5293;103252.7;;;;-79
2022/03/22 10:21:58;;;;;;;;;;;;;;;18.7;47.54297;103251.2;;;;-80
2022/03/22 10:26:56;;;;;;;;;;;;;;;18.95;47.33105;103250.4;;;;-80
2022/03/22 10:31:56;;;;;;;;;;;;;;;19.21;47.7334;103250.2;;;;-79
2022/03/22 10:36:56;;;;;;;;;;;;;;;19.43;47.3252;103252.5;;;;-80
2022/03/22 10:42:10;;;;;;;;;;;;;;;19.65;47.86133;103247.4;;;;-81
2022/03/22 10:45:29;;;;;;;25.5;15.3;;;;;;;;;;;;;-81
2022/03/22 10:47:08;;;;;;;;;;;;;;;19.94;48.44043;103248.6;;;;-79
2022/03/22 10:51:59;;;;;;;;;;;;;;;20.16;47.99609;103247.4;;;;-81
2022/03/22 10:56:57;;;;;;;;;;;;;;;20.35;54.60254;103243.3;;;;-81
2022/03/22 11:01:57;;;;;;;;;;;;;;;20.64;54.71777;103243.6;;;;-80
2022/03/22 11:06:57;;;;;;;;;;;;;;;20.93;57.70898;103243.1;;;;-80
2022/03/22 11:11:58;;;;;;;;;;;;;;;21.29;57.04785;103246.6;;;;-80
2022/03/22 11:15:34;;;;;;;21.2;13.8;;;;;;;;;;;;;-80
2022/03/22 11:16:57;;;;;;;;;;;;;;;21.49;58.19336;103239.3;;;;-80
2022/03/22 11:21:56;;;;;;;;;;;;;;;21.73;58.01758;103238.8;;;;-81
2022/03/22 11:26:57;;;;;;;;;;;;;;;21.92;58.05469;103232.1;;;;-79
2022/03/22 11:37:01;;;;;;;;;;;;;;;22.3;56.98242;103231.3;;;;-82
2022/03/22 11:45:35;;;;;;;18.8;12.7;;;;;;;;;;;;;-82
2022/03/22 11:47:07;;;;;;;;;;;;;;;22.73;56.06348;103233.7;;;;-81
2022/03/22 11:51:58;;;;;;;;;;;;;;;22.86;56.8252;103231.8;;;;-81
2022/03/22 11:56:59;;;;;;;;;;;;;;;23.04;56.54883;103232.6;;;;-81
2022/03/22 12:02:07;;;;;;;;;;;;;;;23.18;55.53418;103233;;;;-81
2022/03/22 12:06:57;;;;;;;;;;;;;;;23.25;55.18848;103233.1;;;;-84
2022/03/22 12:11:56;;;;;;;;;;;;;;;23.28;55.23633;103231.1;;;;-81
2022/03/22 12:15:38;;;;;;;19.9;12.7;;;;;;;;;;;;;-82
2022/03/22 12:17:01;;;;;;;;;;;;;;;23.32;55.0127;103223.3;;;;-83
2022/03/22 12:22:00;;;;;;;;;;;;;;;23.33;56.00098;103216.4;;;;-81
2022/03/22 12:27:03;;;;;;;;;;;;;;;23.41;55.47168;103214;;;;-83
2022/03/22 12:32:13;;;;;;;;;;;;;;;23.42;55.88574;103207.2;;;;-81
2022/03/22 12:36:57;;;;;;;;;;;;;;;23.45;55.98047;103196.8;;;;-83
2022/03/22 12:42:03;;;;;;;;;;;;;;;23.5;55.25293;103195.7;;;;-83
2022/03/22 12:45:49;;;;;;;19.9;11.2;;;;;;;;;;;;;-82
2022/03/22 12:47:04;;;;;;;;;;;;;;;23.51;55.87402;103194.6;;;;-81
2022/03/22 12:52:00;;;;;;;;;;;;;;;23.53;54.5918;103190.5;;;;-82
2022/03/22 12:59:54;;;;;;;;;;;;;;;23.48;56.16797;103181.6;;;;-83
2022/03/22 13:04:57;;;;;;;;;;;;;;;23.44;56.11719;103179.5;;;;-81
2022/03/22 13:15:06;;;;;;;;;;;;;;;23.48;55.2627;103168.1;;;;-82
2022/03/22 13:15:52;;;;;;;16.9;10.6;;;;;;;;;;;;;-84
2022/03/22 13:19:54;;;;;;;;;;;;;;;23.51;56.35645;103166.8;;;;-83
2022/03/22 13:24:54;;;;;;;;;;;;;;;23.48;55.1582;103165.2;;;;-85
2022/03/22 13:29:54;;;;;;;;;;;;;;;23.45;55.72852;103164.1;;;;-83
2022/03/22 13:35:02;;;;;;;;;;;;;;;23.51;56.12695;103160.4;;;;-83
2022/03/22 13:39:55;;;;;;;;;;;;;;;23.61;57.21777;103148.9;;;;-82
2022/03/22 13:44:55;;;;;;;;;;;;;;;23.7;56.22949;103147.8;;;;-83
2022/03/22 13:45:51;;;;;;;16.7;10.5;;;;;;;;;;;;;-80
2022/03/22 13:49:54;;;;;;;;;;;;;;;23.78;57.03223;103144.9;;;;-83
2022/03/22 13:54:54;;;;;;;;;;;;;;;23.84;56.11035;103144.8;;;;-83
2022/03/22 13:59:59;;;;;;;;;;;;;;;23.96;56.82617;103142.4;;;;-82
2022/03/22 14:05:02;;;;;;;;;;;;;;;24.07;56.19629;103143.7;;;;-80
2022/03/22 14:09:55;;;;;;;;;;;;;;;24.14;55.43457;103141.3;;;;-82
2022/03/22 14:14:55;;;;;;;;;;;;;;;24.19;55.7627;103140.6;;;;-81
2022/03/22 14:15:53;;;;;;;17.9;10.1;;;;;;;;;;;;;-82
2022/03/22 14:19:55;;;;;;;;;;;;;;;24.21;55.22461;103133.7;;;;-81
2022/03/22 14:24:54;;;;;;;;;;;;;;;24.22;55.88086;103139.3;;;;-81
2022/03/22 14:29:54;;;;;;;;;;;;;;;24.18;55.04883;103135.5;;;;-82
2022/03/22 14:39:54;;;;;;;;;;;;;;;24.18;55.55469;103129.3;;;;-82
2022/03/22 14:44:55;;;;;;;;;;;;;;;24.18;55.08398;103130;;;;-82
2022/03/22 14:45:56;;;;;;;17.2;10.9;;;;;;;;;;;;;-81
2022/03/22 14:50:12;;;;;;;;;;;;;;;24.15;55.35449;103129.5;;;;-84
2022/03/22 14:55:01;;;;;;;;;;;;;;;24.1;54.76367;103124.8;;;;-82
2022/03/22 15:00:02;;;;;;;;;;;;;;;24.06;54.25195;103121.8;;;;-82
2022/03/22 15:04:58;;;;;;;;;;;;;;;23.99;54.8291;103114.8;;;;-83
2022/03/22 15:09:57;;;;;;;;;;;;;;;23.92;54.67285;103115.5;;;;-81
2022/03/22 15:14:54;;;;;;;;;;;;;;;23.86;54.92871;103112.8;;;;-82
2022/03/22 15:15:59;;;;;;;18.4;10.2;;;;;;;;;;;;;-81
2022/03/22 15:19:54;;;;;;;;;;;;;;;23.78;55.41406;103109.6;;;;-81
2022/03/22 15:24:54;;;;;;;;;;;;;;;23.7;55.68945;103107.1;;;;-83
2022/03/22 15:29:56;;;;;;;;;;;;;;;23.63;55.15332;103103.7;;;;-82
2022/03/22 15:34:54;;;;;;;;;;;;;;;23.51;55.46094;103100.3;;;;-81
2022/03/22 15:39:55;;;;;;;;;;;;;;;23.41;54.98926;103095.8;;;;-83
2022/03/22 15:44:58;;;;;;;;;;;;;;;23.29;54.66406;103092.4;;;;-82
2022/03/22 15:49:05;;;;;;;;;;;;;;;23.18;54.17969;103089.3;;;;-81
2022/03/22 15:54:14;;;;;;;;;;;;;;;23.01;54.72266;103088.7;;;;-83
2022/03/22 15:59:17;;;;;;;;;;;;;;;22.84;54.76953;103085.2;;;;-82
2022/03/22 16:04:06;;;;;;;;;;;;;;;22.71;54.10059;103083.4;;;;-79
2022/03/22 16:09:06;;;;;;;;;;;;;;;22.58;54.08594;103084;;;;-83
2022/03/22 16:14:14;;;;;;;;;;;;;;;22.4;53.9248;103082.5;;;;-82
2022/03/22 16:16:07;;;;;;;20.2;11.7;;;;;;;;;;;;;-81
2022/03/22 16:19:14;;;;;;;;;;;;;;;22.2;53.85547;103076.5;;;;-82
2022/03/22 16:24:07;;;;;;;;;;;;;;;22.02;53.18164;103074.4;;;;-81
2022/03/22 16:29:15;;;;;;;;;;;;;;;21.83;53.69727;103076.1;;;;-82
2022/03/22 16:44:09;;;;;;;;;;;;;;;21.26;53.66211;103070.8;;;;-81
2022/03/22 16:46:15;;;;;;;24.1;13.1;;;;;;;;;;;;;-83
2022/03/22 16:49:17;;;;;;;;;;;;;;;21.05;53.5;103069.6;;;;-80
2022/03/22 16:54:09;;;;;;;;;;;;;;;20.87;53.45508;103072.4;;;;-81
2022/03/22 16:59:10;;;;;;;;;;;;;;;20.65;53.06445;103074.2;;;;-81
2022/03/22 17:04:07;;;;;;;;;;;;;;;20.4;53.35449;103085.7;;;;-83
2022/03/22 17:09:05;;;;;;;;;;;;;;;20.15;53.79102;103081.4;;;;-81
2022/03/22 17:14:34;;;;;;;;;;;;;;;19.9;53.72754;103080.2;;;;-81
2022/03/22 17:16:13;;;;;;;24.2;13.3;;;;;;;;;;;;;-81
2022/03/22 17:19:08;;;;;;;;;;;;;;;19.64;53.70801;103085.9;;;;-79
2022/03/22 17:24:06;;;;;;;;;;;;;;;19.37;53.90137;103082;;;;-82
2022/03/22 17:29:06;;;;;;;;;;;;;;;19.12;54.28223;103087.6;;;;-81
2022/03/22 17:34:11;;;;;;;;;;;;;;;18.87;54.16016;103090.4;;;;-81
2022/03/22 17:39:07;;;;;;;;;;;;;;;18.61;54.40039;103090.3;;;;-79
2022/03/22 17:44:09;;;;;;;;;;;;;;;18.35;54.32227;103094.3;;;;-80
2022/03/22 17:46:16;;;;;;;23.3;13.2;;;;;;;;;;;;;-81
2022/03/22 17:48:46;;;;;;;;;;;;;;;18.11;54.40723;103096.1;;;;-80
2022/03/22 17:53:46;;;;;;;;;;;;;;;17.85;54.45508;103100.6;;;;-80
2022/03/22 17:58:48;;;;;;;;;;;;;;;17.59;54.55859;103101.7;;;;-80
2022/03/22 18:03:46;;;;;;;;;;;;;;;17.32;54.61719;103101.8;;;;-82
2022/03/22 18:08:47;;;;;;;;;;;;;;;17.05;54.7207;103108.2;;;;-81
2022/03/22 18:13:46;;;;;;;;;;;;;;;16.8;54.78906;103111.7;;;;-80
2022/03/22 18:16:18;;;;;;;23.9;13.5;;;;;;;;;;;;;-80
2022/03/22 18:18:46;;;;;;;;;;;;;;;16.55;55.08691;103113.6;;;;-81
2022/03/22 18:23:46;;;;;;;;;;;;;;;16.32;54.92188;103119.9;;;;-79
2022/03/22 18:28:52;;;;;;;;;;;;;;;16.09;54.8252;103120.6;;;;-82
2022/03/22 18:33:46;;;;;;;;;;;;;;;15.9;54.8584;103129.3;;;;-80
2022/03/22 18:38:47;;;;;;;;;;;;;;;15.7;54.9248;103128.9;;;;-80
2022/03/22 18:43:54;;;;;;;;;;;;;;;15.52;54.39453;103138.2;;;;-80
2022/03/22 18:46:22;;;;;;;28.3;13.8;;;;;;;;;;;;;-81
2022/03/22 18:48:49;;;;;;;;;;;;;;;15.34;54.34961;103139.2;;;;-82
2022/03/22 18:53:50;;;;;;;;;;;;;;;15.16;54.43945;103141.7;;;;-80
2022/03/22 18:58:47;;;;;;;;;;;;;;;15;54.53223;103142.8;;;;-81
2022/03/22 19:03:53;;;;;;;;;;;;;;;14.82;54.46484;103146.3;;;;-81
2022/03/22 19:08:48;;;;;;;;;;;;;;;14.65;54.60156;103151.1;;;;-80
2022/03/22 19:13:48;;;;;;;;;;;;;;;14.49;54.64941;103154.3;;;;-80
2022/03/22 19:18:46;;;;;;;;;;;;;;;14.32;54.86523;103157.4;;;;-81
2022/03/22 19:23:47;;;;;;;;;;;;;;;14.16;55.10449;103160.2;;;;-81
2022/03/22 19:28:47;;;;;;;;;;;;;;;14.01;55.27539;103160.1;;;;-83
2022/03/22 19:33:46;;;;;;;;;;;;;;;13.86;55.39063;103160.6;;;;-78
2022/03/22 19:38:47;;;;;;;;;;;;;;;13.71;55.59863;103166.3;;;;-82
2022/03/22 19:43:46;;;;;;;;;;;;;;;13.58;55.76074;103170.4;;;;-82
2022/03/22 19:46:28;;;;;;;33.3;15.3;;;;;;;;;;;;;-80
2022/03/22 19:48:51;;;;;;;;;;;;;;;13.44;55.85449;103174;;;;-81
2022/03/22 19:53:47;;;;;;;;;;;;;;;13.31;56.00488;103177.6;;;;-80
2022/03/22 19:58:46;;;;;;;;;;;;;;;13.17;56.08984;103179.2;;;;-81
2022/03/22 20:03:46;;;;;;;;;;;;;;;13.04;56.18555;103181;;;;-82
2022/03/22 20:08:46;;;;;;;;;;;;;;;12.92;56.41602;103182;;;;-81
2022/03/22 20:13:50;;;;;;;;;;;;;;;12.79;56.54492;103179.9;;;;-81
2022/03/22 20:16:27;;;;;;;30.5;14.8;;;;;;;;;;;;;-81
2022/03/22 20:18:46;;;;;;;;;;;;;;;12.67;56.63086;103181.5;;;;-80
2022/03/22 20:23:47;;;;;;;;;;;;;;;12.55;56.75977;103182.8;;;;-81
2022/03/22 20:28:48;;;;;;;;;;;;;;;12.43;56.87891;103183;;;;-80
2022/03/22 20:33:48;;;;;;;;;;;;;;;12.31;56.99707;103188.5;;;;-79
2022/03/22 20:38:47;;;;;;;;;;;;;;;12.19;57.04883;103191.1;;;;-80
2022/03/22 20:43:46;;;;;;;;;;;;;;;12.07;57.19043;103188.4;;;;-80
2022/03/22 20:46:28;;;;;;;29.6;14.9;;;;;;;;;;;;;-80
2022/03/22 20:48:46;;;;;;;;;;;;;;;11.96;57.23047;103189.7;;;;-81
2022/03/22 20:53:46;;;;;;;;;;;;;;;11.84;57.35059;103193.8;;;;-80
2022/03/22 21:03:48;;;;;;;;;;;;;;;11.6;57.50781;103193.1;;;;-81
2022/03/22 21:08:48;;;;;;;;;;;;;;;11.47;57.625;103199.5;;;;-81
2022/03/22 21:13:48;;;;;;;;;;;;;;;11.36;57.71094;103203.3;;;;-80
2022/03/22 21:16:27;;;;;;;30.6;14.3;;;;;;;;;;;;;-82
2022/03/22 21:18:50;;;;;;;;;;;;;;;11.25;57.85352;103201.4;;;;-80
2022/03/22 21:23:47;;;;;;;;;;;;;;;11.16;57.85059;103201.2;;;;-80
2022/03/22 21:28:47;;;;;;;;;;;;;;;11.04;57.88086;103203.4;;;;-81
2022/03/22 21:33:46;;;;;;;;;;;;;;;10.93;58.13379;103202.6;;;;-81
2022/03/22 21:38:46;;;;;;;;;;;;;;;10.81;58.06152;103200.6;;;;-80
2022/03/22 21:43:48;;;;;;;;;;;;;;;10.69;58.22363;103202.8;;;;-80
2022/03/22 21:46:28;;;;;;;31.4;14.4;;;;;;;;;;;;;-79
2022/03/22 21:48:46;;;;;;;;;;;;;;;10.57;58.29688;103205.5;;;;-80
2022/03/22 21:53:50;;;;;;;;;;;;;;;10.44;58.45801;103206.4;;;;-80
2022/03/22 21:58:47;;;;;;;;;;;;;;;10.31;58.64063;103205.1;;;;-81
2022/03/22 22:03:49;;;;;;;;;;;;;;;10.17;58.71094;103205.5;;;;-79
2022/03/22 22:08:48;;;;;;;;;;;;;;;10.05;58.85059;103206.3;;;;-79
2022/03/22 22:13:46;;;;;;;;;;;;;;;9.91;58.86621;103205.4;;;;-81
2022/03/22 22:16:29;;;;;;;33.5;15.1;;;;;;;;;;;;;-80
2022/03/22 22:18:46;;;;;;;;;;;;;;;9.79;59.1377;103204.1;;;;-81
2022/03/22 22:23:46;;;;;;;;;;;;;;;9.68;59.2002;103198.9;;;;-80
2022/03/22 22:28:46;;;;;;;;;;;;;;;9.55;59.21582;103197.3;;;;-79
2022/03/22 22:38:46;;;;;;;;;;;;;;;9.32;59.49512;103200.9;;;;-82
2022/03/22 22:43:46;;;;;;;;;;;;;;;9.22;59.56055;103200.5;;;;-81
2022/03/22 22:46:30;;;;;;;31.7;13.8;;;;;;;;;;;;;-79
2022/03/22 22:48:49;;;;;;;;;;;;;;;9.12;59.64648;103197.8;;;;-79
2022/03/22 22:53:47;;;;;;;;;;;;;;;9.02;59.57617;103196.5;;;;-80
2022/03/22 22:58:47;;;;;;;;;;;;;;;8.93;59.76367;103198.8;;;;-79
2022/03/22 23:03:46;;;;;;;;;;;;;;;8.84;59.72949;103202.5;;;;-79
2022/03/22 23:13:47;;;;;;;;;;;;;;;8.68;59.8623;103194.4;;;;-78
2022/03/22 23:16:33;;;;;;;28.5;13.5;;;;;;;;;;;;;-79
2022/03/22 23:18:47;;;;;;;;;;;;;;;8.58;59.94922;103195.7;;;;-78
2022/03/22 23:23:47;;;;;;;;;;;;;;;8.49;60.17969;103193.8;;;;-80
2022/03/22 23:28:46;;;;;;;;;;;;;;;8.44;60.11816;103193;;;;-79
2022/03/22 23:33:49;;;;;;;;;;;;;;;8.41;60.19141;103190.4;;;;-74
2022/03/22 23:38:47;;;;;;;;;;;;;;;8.37;60.10938;103188.9;;;;-74
2022/03/22 23:43:46;;;;;;;;;;;;;;;8.35;60.07227;103187.7;;;;-75
2022/03/22 23:46:33;;;;;;;30.7;12.9;;;;;;;;;;;;;-76
2022/03/22 23:48:46;;;;;;;;;;;;;;;8.29;60.09668;103187.1;;;;-74
2022/03/22 23:53:46;;;;;;;;;;;;;;;8.26;60.12695;103183.7;;;;-75
2022/03/22 23:58:46;;;;;;;;;;;;;;;8.21;60.18555;103183;;;;-79
